Time;durP1;ratioP1;P1;durP2;ratioP2;P2;SDS_P1;SDS_P2;PMS_P1;PMS_P2;Temp;Humidity;BMP_temperature;BMP_pressure;BME280_temperature;BME280_humidity;BME280_pressure;Samples;Min_cycle;Max_cycle;Signal;HPM_P1;HPM_P2
2022/04/24 00:00:08;;;;;;;8.13;3.90;;;;;;;;;;5018780;28;20046;-91
2022/04/24 00:02:35;;;;;;;6.97;3.65;;;;;;;;;;5054259;28;20113;-89
2022/04/24 00:05:04;;;;;;;6.45;3.80;;;;;;;;;;5053462;28;20623;-90
2022/04/24 00:07:31;;;;;;;9.90;4.10;;;;;;;;;;5068273;28;20552;-90
2022/04/24 00:09:59;;;;;;;8.00;3.80;;;;;;;;;;5053845;28;20041;-90
2022/04/24 00:12:27;;;;;;;12.32;3.88;;;;;;;;;;5050386;28;20037;-88
2022/04/24 00:14:55;;;;;;;7.05;3.83;;;;;;;;;;5055836;28;20457;-88
2022/04/24 00:17:23;;;;;;;6.55;3.28;;;;;;;;;;5052719;28;20045;-89
2022/04/24 00:19:51;;;;;;;5.53;3.60;;;;;;;;;;5059314;28;20036;-89
2022/04/24 00:22:19;;;;;;;8.75;3.22;;;;;;;;;;5055941;28;20032;-88
2022/04/24 00:24:47;;;;;;;7.40;3.70;;;;;;;;;;5056616;28;20083;-88
2022/04/24 00:27:15;;;;;;;7.45;3.53;;;;;;;;;;5058015;28;20076;-87
2022/04/24 00:29:43;;;;;;;5.97;2.90;;;;;;;;;;5060262;28;20049;-88
2022/04/24 00:32:11;;;;;;;8.18;3.28;;;;;;;;;;5059869;28;20398;-87
2022/04/24 00:34:40;;;;;;;7.55;4.00;;;;;;;;;;5057053;28;20067;-87
2022/04/24 00:37:09;;;;;;;6.22;3.40;;;;;;;;;;5054402;28;20402;-86
2022/04/24 00:39:37;;;;;;;6.93;3.42;;;;;;;;;;5056359;28;20051;-87
2022/04/24 00:42:08;;;;;;;6.22;3.10;;;;;;;;;;5055117;28;20126;-88
2022/04/24 00:44:35;;;;;;;7.43;3.20;;;;;;;;;;5060592;28;20068;-86
2022/04/24 00:47:41;;;;;;;7.45;3.33;;;;;;;;;;5022112;28;20068;-87
2022/04/24 00:50:09;;;;;;;7.07;3.70;;;;;;;;;;5026351;28;20471;-87
2022/04/24 00:52:38;;;;;;;7.85;3.72;;;;;;;;;;5026380;28;20041;-87
2022/04/24 00:55:06;;;;;;;6.75;3.30;;;;;;;;;;5026383;28;20061;-87
2022/04/24 00:57:33;;;;;;;6.57;3.28;;;;;;;;;;5027830;28;20691;-91
2022/04/24 01:00:03;;;;;;;7.68;3.40;;;;;;;;;;5031080;28;20045;-92
2022/04/24 01:02:31;;;;;;;6.68;3.28;;;;;;;;;;5014694;28;20490;-89
2022/04/24 01:05:00;;;;;;;6.22;3.50;;;;;;;;;;5025266;28;20070;-89
2022/04/24 01:07:27;;;;;;;8.50;3.85;;;;;;;;;;5027142;28;20056;-89
2022/04/24 01:09:57;;;;;;;5.65;3.15;;;;;;;;;;5029512;28;20053;-89
2022/04/24 01:12:26;;;;;;;9.23;3.30;;;;;;;;;;5026759;28;20081;-89
2022/04/24 01:14:53;;;;;;;6.95;3.47;;;;;;;;;;5023055;28;20619;-89
2022/04/24 01:17:21;;;;;;;8.00;3.80;;;;;;;;;;5030370;28;20064;-89
2022/04/24 01:19:49;;;;;;;6.78;3.65;;;;;;;;;;5025174;28;20053;-89
2022/04/24 01:22:17;;;;;;;8.45;3.58;;;;;;;;;;5044055;28;20511;-89
2022/04/24 01:24:44;;;;;;;6.90;3.47;;;;;;;;;;5055447;28;20135;-89
2022/04/24 01:27:12;;;;;;;9.15;3.53;;;;;;;;;;5066090;28;20094;-89
2022/04/24 01:29:40;;;;;;;7.28;3.20;;;;;;;;;;5051417;28;20037;-89
2022/04/24 01:32:08;;;;;;;5.80;3.45;;;;;;;;;;5054858;28;20417;-89
2022/04/24 01:34:36;;;;;;;8.32;3.45;;;;;;;;;;5063464;28;20052;-90
2022/04/24 01:37:04;;;;;;;7.40;3.25;;;;;;;;;;5043011;28;20099;-91
2022/04/24 01:39:32;;;;;;;5.40;2.97;;;;;;;;;;5051821;28;20841;-91
2022/04/24 01:42:00;;;;;;;7.18;3.53;;;;;;;;;;5041740;28;20033;-91
2022/04/24 01:44:28;;;;;;;6.30;3.03;;;;;;;;;;5049114;28;20048;-91
2022/04/24 01:46:56;;;;;;;6.40;3.13;;;;;;;;;;5040597;28;20037;-90
2022/04/24 01:49:24;;;;;;;5.38;3.28;;;;;;;;;;5054451;28;20083;-90
2022/04/24 01:51:52;;;;;;;6.00;2.97;;;;;;;;;;5052610;28;20124;-91
2022/04/24 01:54:20;;;;;;;6.95;2.90;;;;;;;;;;5041223;28;20091;-91
2022/04/24 01:56:48;;;;;;;5.65;2.97;;;;;;;;;;5052741;28;20397;-91
2022/04/24 01:59:17;;;;;;;7.50;2.97;;;;;;;;;;5046054;28;20037;-91
2022/04/24 02:01:44;;;;;;;6.13;3.08;;;;;;;;;;5050700;28;20049;-90
2022/04/24 02:04:12;;;;;;;7.20;3.17;;;;;;;;;;5061704;28;20069;-91
2022/04/24 02:06:40;;;;;;;5.63;2.80;;;;;;;;;;5045794;28;20049;-91
2022/04/24 02:09:08;;;;;;;5.13;2.47;;;;;;;;;;5057191;28;20071;-91
2022/04/24 02:11:37;;;;;;;5.68;2.83;;;;;;;;;;5043484;28;20061;-91
2022/04/24 02:14:04;;;;;;;9.85;3.35;;;;;;;;;;5056206;28;20502;-93
2022/04/24 02:16:32;;;;;;;6.13;2.90;;;;;;;;;;5052072;28;20091;-93
2022/04/24 02:19:00;;;;;;;5.30;2.85;;;;;;;;;;5033755;28;20087;-93
2022/04/24 02:21:28;;;;;;;8.57;2.88;;;;;;;;;;5055137;28;20052;-93
2022/04/24 02:23:56;;;;;;;7.13;3.10;;;;;;;;;;5052738;28;20037;-93
2022/04/24 02:26:24;;;;;;;5.85;2.90;;;;;;;;;;5050101;28;20088;-93
2022/04/24 02:28:52;;;;;;;15.50;3.40;;;;;;;;;;5066392;28;20045;-93
2022/04/24 02:31:20;;;;;;;8.23;2.88;;;;;;;;;;5071191;28;20375;-92
2022/04/24 02:33:48;;;;;;;8.30;2.65;;;;;;;;;;5045014;28;20040;-92
2022/04/24 02:36:16;;;;;;;8.77;2.80;;;;;;;;;;5057781;28;20040;-92
2022/04/24 02:38:44;;;;;;;5.35;2.53;;;;;;;;;;5042972;28;20044;-92
2022/04/24 02:41:12;;;;;;;6.35;2.88;;;;;;;;;;5052650;28;20054;-92
2022/04/24 02:43:40;;;;;;;5.93;2.40;;;;;;;;;;5046801;28;20033;-92
2022/04/24 02:46:08;;;;;;;7.82;2.85;;;;;;;;;;5053528;28;20041;-93
2022/04/24 02:48:37;;;;;;;4.63;2.50;;;;;;;;;;5048300;28;20227;-93
2022/04/24 02:51:04;;;;;;;6.13;3.05;;;;;;;;;;5056877;28;20076;-93
2022/04/24 02:53:32;;;;;;;8.20;2.83;;;;;;;;;;5067927;28;20047;-93
2022/04/24 02:56:00;;;;;;;5.60;3.45;;;;;;;;;;5068295;28;20703;-93
2022/04/24 02:58:28;;;;;;;6.47;3.17;;;;;;;;;;5076160;28;20049;-93
2022/04/24 03:00:56;;;;;;;8.60;3.25;;;;;;;;;;5058073;28;20120;-93
2022/04/24 03:03:24;;;;;;;5.85;2.85;;;;;;;;;;5045955;28;20037;-93
2022/04/24 03:05:52;;;;;;;8.30;3.25;;;;;;;;;;5034558;28;20050;-93
2022/04/24 03:08:21;;;;;;;5.40;2.50;;;;;;;;;;5068673;28;20043;-85
2022/04/24 03:10:48;;;;;;;7.53;2.90;;;;;;;;;;5051948;28;20091;-85
2022/04/24 03:13:16;;;;;;;6.78;2.83;;;;;;;;;;5055478;28;20620;-86
2022/04/24 03:15:44;;;;;;;6.65;2.60;;;;;;;;;;5056371;28;20128;-91
2022/04/24 03:18:12;;;;;;;6.82;2.90;;;;;;;;;;5047829;28;20048;-92
2022/04/24 03:20:40;;;;;;;5.43;2.90;;;;;;;;;;5040010;28;20045;-91
2022/04/24 03:23:08;;;;;;;6.85;2.88;;;;;;;;;;5066531;28;20088;-91
2022/04/24 03:25:36;;;;;;;5.72;2.88;;;;;;;;;;5043896;28;20125;-92
2022/04/24 03:28:04;;;;;;;9.20;3.05;;;;;;;;;;5039722;28;20033;-91
2022/04/24 03:30:32;;;;;;;9.05;2.88;;;;;;;;;;5049997;28;20653;-92
2022/04/24 03:33:00;;;;;;;6.82;2.60;;;;;;;;;;5070116;28;20127;-92
2022/04/24 03:35:28;;;;;;;4.97;2.75;;;;;;;;;;5064341;28;20048;-91
2022/04/24 03:37:56;;;;;;;7.03;2.80;;;;;;;;;;5051164;28;20656;-91
2022/04/24 03:40:24;;;;;;;7.30;2.65;;;;;;;;;;5051037;28;20044;-91
2022/04/24 03:42:52;;;;;;;6.13;2.63;;;;;;;;;;5053197;28;20048;-91
2022/04/24 03:45:20;;;;;;;6.00;2.72;;;;;;;;;;5074580;28;20099;-91
2022/04/24 03:47:48;;;;;;;6.35;2.83;;;;;;;;;;5047104;28;20076;-91
2022/04/24 03:50:16;;;;;;;7.25;3.28;;;;;;;;;;5058183;28;20041;-91
2022/04/24 03:52:44;;;;;;;5.95;2.65;;;;;;;;;;5041652;28;20115;-91
2022/04/24 03:55:12;;;;;;;6.95;3.03;;;;;;;;;;5059427;28;20490;-91
2022/04/24 03:57:40;;;;;;;7.03;2.78;;;;;;;;;;5045156;28;20041;-91
2022/04/24 04:00:08;;;;;;;6.40;2.83;;;;;;;;;;5053915;28;20040;-91
2022/04/24 04:02:46;;;;;;;9.88;2.92;;;;;;;;;;5055301;28;20048;-91
2022/04/24 04:05:18;;;;;;;8.93;3.30;;;;;;;;;;5059073;28;20037;-92
2022/04/24 04:07:46;;;;;;;8.20;3.17;;;;;;;;;;5051078;28;20041;-91
2022/04/24 04:10:14;;;;;;;8.23;3.05;;;;;;;;;;5051368;28;20079;-91
2022/04/24 04:12:42;;;;;;;6.47;3.05;;;;;;;;;;5050337;28;20053;-92
2022/04/24 04:15:10;;;;;;;8.68;2.92;;;;;;;;;;5067513;28;20865;-91
2022/04/24 04:17:38;;;;;;;4.53;2.67;;;;;;;;;;5054607;28;20127;-91
2022/04/24 04:20:11;;;;;;;9.05;3.42;;;;;;;;;;5061178;28;20029;-91
2022/04/24 04:22:50;;;;;;;6.88;2.65;;;;;;;;;;5050352;28;20407;-91
2022/04/24 04:25:19;;;;;;;8.32;3.63;;;;;;;;;;5049607;28;20120;-94
2022/04/24 04:27:47;;;;;;;9.40;3.50;;;;;;;;;;5034378;28;20080;-93
2022/04/24 04:30:14;;;;;;;6.75;3.13;;;;;;;;;;5040115;28;20407;-93
2022/04/24 04:32:42;;;;;;;11.10;3.42;;;;;;;;;;5061490;28;20104;-93
2022/04/24 04:35:10;;;;;;;8.45;3.53;;;;;;;;;;5055881;28;20093;-93
2022/04/24 04:37:39;;;;;;;6.70;4.15;;;;;;;;;;5046747;28;20495;-90
2022/04/24 04:40:08;;;;;;;6.93;3.25;;;;;;;;;;5047286;28;20033;-91
2022/04/24 04:42:36;;;;;;;8.75;3.65;;;;;;;;;;5045517;28;20443;-91
2022/04/24 04:45:06;;;;;;;7.57;3.08;;;;;;;;;;5049403;28;20048;-91
2022/04/24 04:47:34;;;;;;;8.63;3.63;;;;;;;;;;5057739;28;20041;-90
2022/04/24 04:50:03;;;;;;;7.75;3.55;;;;;;;;;;5054913;28;20041;-91
2022/04/24 04:52:32;;;;;;;14.18;4.25;;;;;;;;;;5043396;28;20068;-90
2022/04/24 04:55:01;;;;;;;8.40;3.95;;;;;;;;;;5052559;28;20140;-90
2022/04/24 04:57:28;;;;;;;4.78;2.45;;;;;;;;;;5050018;28;20049;-91
2022/04/24 04:59:56;;;;;;;8.13;3.63;;;;;;;;;;5057409;28;20048;-88
2022/04/24 05:02:24;;;;;;;6.32;3.38;;;;;;;;;;5053795;28;20177;-88
2022/04/24 05:04:52;;;;;;;12.15;4.90;;;;;;;;;;5054743;28;20049;-88
2022/04/24 05:07:20;;;;;;;12.27;3.65;;;;;;;;;;5055685;28;20439;-88
2022/04/24 05:09:48;;;;;;;9.88;3.58;;;;;;;;;;5053557;28;20136;-88
2022/04/24 05:12:16;;;;;;;6.97;3.35;;;;;;;;;;5058306;28;20119;-88
2022/04/24 05:14:44;;;;;;;9.27;3.78;;;;;;;;;;5054610;28;20485;-87
2022/04/24 05:17:12;;;;;;;8.60;3.92;;;;;;;;;;5059188;28;20355;-88
2022/04/24 05:19:40;;;;;;;10.85;3.78;;;;;;;;;;5056658;28;20048;-88
2022/04/24 05:22:08;;;;;;;9.40;3.85;;;;;;;;;;5057646;28;20041;-88
2022/04/24 05:24:36;;;;;;;15.40;3.72;;;;;;;;;;5058639;28;20044;-87
2022/04/24 05:27:05;;;;;;;11.23;3.83;;;;;;;;;;5059733;28;20075;-88
2022/04/24 05:29:32;;;;;;;9.52;3.72;;;;;;;;;;5054861;28;20087;-88
2022/04/24 05:32:00;;;;;;;9.40;3.47;;;;;;;;;;5055230;28;20480;-88
2022/04/24 05:34:28;;;;;;;8.57;3.60;;;;;;;;;;5057377;28;20079;-88
2022/04/24 05:36:56;;;;;;;9.63;3.80;;;;;;;;;;5057285;28;20052;-88
2022/04/24 05:39:24;;;;;;;10.85;3.78;;;;;;;;;;5050842;28;20041;-88
2022/04/24 05:41:52;;;;;;;9.13;4.03;;;;;;;;;;5054546;28;20065;-88
2022/04/24 05:44:20;;;;;;;5.88;3.10;;;;;;;;;;5055556;28;20072;-88
2022/04/24 05:46:48;;;;;;;7.22;3.95;;;;;;;;;;5051555;28;20116;-89
2022/04/24 05:49:17;;;;;;;7.90;3.03;;;;;;;;;;5048983;28;20402;-88
2022/04/24 05:51:44;;;;;;;7.53;3.30;;;;;;;;;;5049401;28;20047;-88
2022/04/24 05:54:12;;;;;;;6.88;3.38;;;;;;;;;;5054696;28;20044;-88
2022/04/24 05:56:40;;;;;;;8.77;2.88;;;;;;;;;;5053321;28;20494;-87
2022/04/24 05:59:08;;;;;;;7.20;3.25;;;;;;;;;;5053421;28;20045;-89
2022/04/24 06:01:36;;;;;;;9.43;4.40;;;;;;;;;;5056277;28;20051;-89
2022/04/24 06:04:04;;;;;;;9.60;3.88;;;;;;;;;;5056136;28;20033;-87
2022/04/24 06:06:32;;;;;;;6.35;3.38;;;;;;;;;;5058117;28;20136;-88
2022/04/24 06:09:00;;;;;;;10.50;3.67;;;;;;;;;;5056081;28;20049;-87
2022/04/24 06:11:28;;;;;;;10.23;3.95;;;;;;;;;;5050016;28;20141;-89
2022/04/24 06:13:56;;;;;;;9.95;3.50;;;;;;;;;;5050052;28;21818;-88
2022/04/24 06:16:24;;;;;;;15.63;4.00;;;;;;;;;;5058213;28;20139;-87
2022/04/24 06:18:52;;;;;;;7.63;4.00;;;;;;;;;;5060247;28;20055;-87
2022/04/24 06:21:20;;;;;;;7.30;3.13;;;;;;;;;;5056647;28;20488;-89
2022/04/24 06:23:48;;;;;;;7.03;3.05;;;;;;;;;;5058493;28;20064;-88
2022/04/24 06:26:16;;;;;;;6.53;2.72;;;;;;;;;;5056920;28;20048;-87
2022/04/24 06:28:44;;;;;;;7.22;3.15;;;;;;;;;;5057775;28;20082;-86
2022/04/24 06:31:12;;;;;;;8.52;3.47;;;;;;;;;;5055771;28;20100;-87
2022/04/24 06:33:40;;;;;;;8.90;3.08;;;;;;;;;;5056701;28;20129;-88
2022/04/24 06:36:08;;;;;;;5.03;2.47;;;;;;;;;;5060511;28;20095;-89
2022/04/24 06:38:37;;;;;;;5.53;2.92;;;;;;;;;;5060592;28;20562;-88
2022/04/24 06:41:04;;;;;;;6.53;2.80;;;;;;;;;;5053945;28;20036;-87
2022/04/24 06:43:32;;;;;;;7.50;3.20;;;;;;;;;;5056665;28;20071;-88
2022/04/24 06:46:00;;;;;;;7.53;3.58;;;;;;;;;;5061088;28;20048;-87
2022/04/24 06:48:28;;;;;;;10.15;3.58;;;;;;;;;;5054635;28;20048;-87
2022/04/24 06:51:02;;;;;;;7.28;2.90;;;;;;;;;;5057951;28;20379;-87
2022/04/24 06:53:30;;;;;;;5.25;3.08;;;;;;;;;;5057504;28;20047;-83
2022/04/24 06:55:58;;;;;;;8.40;3.17;;;;;;;;;;5057035;28;20032;-83
2022/04/24 06:58:26;;;;;;;7.78;2.70;;;;;;;;;;5058768;28;20061;-83
2022/04/24 07:00:55;;;;;;;10.50;3.25;;;;;;;;;;5057177;28;20059;-83
2022/04/24 07:03:34;;;;;;;6.38;3.03;;;;;;;;;;5058311;28;20049;-81
2022/04/24 07:06:03;;;;;;;7.63;2.88;;;;;;;;;;5059610;28;20044;-82
2022/04/24 07:08:30;;;;;;;5.88;2.90;;;;;;;;;;5060915;28;20047;-83
2022/04/24 07:10:58;;;;;;;5.32;2.78;;;;;;;;;;5057618;28;20093;-83
2022/04/24 07:13:26;;;;;;;7.75;2.83;;;;;;;;;;5057333;28;20036;-83
2022/04/24 07:15:54;;;;;;;6.72;2.75;;;;;;;;;;5057865;28;20423;-83
2022/04/24 07:18:22;;;;;;;8.05;2.72;;;;;;;;;;5061176;28;20048;-83
2022/04/24 07:20:52;;;;;;;7.22;2.70;;;;;;;;;;5060521;28;20049;-83
2022/04/24 07:23:20;;;;;;;7.35;2.88;;;;;;;;;;5063549;28;20037;-83
2022/04/24 07:25:49;;;;;;;6.50;2.67;;;;;;;;;;5061197;28;20045;-83
2022/04/24 07:28:19;;;;;;;5.68;2.63;;;;;;;;;;5054872;28;20484;-83
2022/04/24 07:30:46;;;;;;;5.82;2.50;;;;;;;;;;5060349;28;20044;-84
2022/04/24 07:33:14;;;;;;;5.82;2.78;;;;;;;;;;5062022;28;20443;-83
2022/04/24 07:35:42;;;;;;;6.15;2.70;;;;;;;;;;5062572;28;20137;-83
2022/04/24 07:38:10;;;;;;;7.40;2.63;;;;;;;;;;5065139;28;20045;-84
2022/04/24 07:40:41;;;;;;;5.50;2.75;;;;;;;;;;5061053;28;20045;-82
2022/04/24 07:43:10;;;;;;;7.22;3.08;;;;;;;;;;5063772;28;20053;-83
2022/04/24 07:45:48;;;;;;;5.05;2.65;;;;;;;;;;5062571;28;20083;-83
2022/04/24 07:48:17;;;;;;;5.47;2.40;;;;;;;;;;5061708;28;20045;-83
2022/04/24 07:50:47;;;;;;;6.47;2.65;;;;;;;;;;5062271;28;20041;-84
2022/04/24 07:53:16;;;;;;;6.82;2.70;;;;;;;;;;5062926;28;20072;-83
2022/04/24 07:55:46;;;;;;;6.25;2.60;;;;;;;;;;5060803;28;20036;-83
2022/04/24 07:58:14;;;;;;;5.30;2.63;;;;;;;;;;5060831;28;20045;-83
2022/04/24 08:00:43;;;;;;;5.75;2.70;;;;;;;;;;5060105;28;20099;-83
2022/04/24 08:03:13;;;;;;;5.47;2.58;;;;;;;;;;5062130;28;20056;-83
2022/04/24 08:05:48;;;;;;;7.20;3.13;;;;;;;;;;5062237;28;20049;-83
2022/04/24 08:08:23;;;;;;;5.40;2.40;;;;;;;;;;5063852;28;20037;-83
2022/04/24 08:10:57;;;;;;;4.72;2.40;;;;;;;;;;5057901;28;20117;-84
2022/04/24 08:13:25;;;;;;;6.35;2.65;;;;;;;;;;5062076;28;20135;-83
2022/04/24 08:15:53;;;;;;;6.53;2.50;;;;;;;;;;5059855;28;20483;-84
2022/04/24 08:18:20;;;;;;;5.82;2.38;;;;;;;;;;5057674;28;20039;-84
2022/04/24 08:20:48;;;;;;;6.43;2.35;;;;;;;;;;5058475;28;20079;-83
2022/04/24 08:23:16;;;;;;;4.05;2.15;;;;;;;;;;5058186;28;20040;-84
2022/04/24 08:25:45;;;;;;;4.85;2.25;;;;;;;;;;5057594;28;20072;-84
2022/04/24 08:28:13;;;;;;;5.80;2.47;;;;;;;;;;5057335;28;20110;-84
2022/04/24 08:30:45;;;;;;;4.63;2.47;;;;;;;;;;5058030;28;20041;-83
2022/04/24 08:33:17;;;;;;;7.03;2.35;;;;;;;;;;5060166;28;20038;-83
2022/04/24 08:35:46;;;;;;;6.38;2.50;;;;;;;;;;5053999;28;20082;-83
2022/04/24 08:38:14;;;;;;;7.15;2.63;;;;;;;;;;5057541;28;20106;-84
2022/04/24 08:40:42;;;;;;;6.72;2.60;;;;;;;;;;5056758;28;20041;-84
2022/04/24 08:43:13;;;;;;;6.10;2.38;;;;;;;;;;5055915;28;20502;-84
2022/04/24 08:45:43;;;;;;;6.00;2.40;;;;;;;;;;5055775;28;20048;-84
2022/04/24 08:48:13;;;;;;;5.30;2.17;;;;;;;;;;5057196;28;20132;-83
2022/04/24 08:50:41;;;;;;;5.28;2.53;;;;;;;;;;5056242;28;20045;-86
2022/04/24 08:53:09;;;;;;;6.10;2.53;;;;;;;;;;5058923;28;20044;-84
2022/04/24 08:55:36;;;;;;;9.50;2.65;;;;;;;;;;5055799;28;20129;-84
2022/04/24 08:58:04;;;;;;;5.65;2.40;;;;;;;;;;5056499;28;20044;-82
2022/04/24 09:00:33;;;;;;;7.90;2.75;;;;;;;;;;5060178;28;20123;-83
2022/04/24 09:03:00;;;;;;;6.10;2.50;;;;;;;;;;5058027;28;20497;-84
2022/04/24 09:05:30;;;;;;;4.72;2.33;;;;;;;;;;5056953;28;20068;-83
2022/04/24 09:08:09;;;;;;;6.00;2.40;;;;;;;;;;5057702;28;20033;-83
2022/04/24 09:10:58;;;;;;;4.60;2.33;;;;;;;;;;5057676;28;20047;-82
2022/04/24 09:13:32;;;;;;;4.75;2.20;;;;;;;;;;5060336;28;20067;-83
2022/04/24 09:16:02;;;;;;;4.63;2.35;;;;;;;;;;5058012;28;20036;-83
2022/04/24 09:18:38;;;;;;;4.72;2.08;;;;;;;;;;5055914;28;20482;-84
2022/04/24 09:21:06;;;;;;;4.28;1.98;;;;;;;;;;5058238;28;20144;-84
2022/04/24 09:23:36;;;;;;;4.10;2.38;;;;;;;;;;5057870;28;20055;-84
2022/04/24 09:26:05;;;;;;;4.72;1.75;;;;;;;;;;5045490;28;20048;-84
2022/04/24 09:28:40;;;;;;;5.50;2.50;;;;;;;;;;5055879;28;20037;-85
2022/04/24 09:31:09;;;;;;;7.75;2.85;;;;;;;;;;5054400;28;20052;-84
2022/04/24 09:33:43;;;;;;;6.57;2.70;;;;;;;;;;5053771;28;20049;-84
2022/04/24 09:36:12;;;;;;;8.05;2.28;;;;;;;;;;5056319;28;20033;-84
2022/04/24 09:38:45;;;;;;;5.85;2.30;;;;;;;;;;5056503;28;20099;-85
2022/04/24 09:41:21;;;;;;;4.90;2.20;;;;;;;;;;5057166;28;20063;-85
2022/04/24 09:43:51;;;;;;;4.60;2.10;;;;;;;;;;5058534;28;20131;-85
2022/04/24 09:46:25;;;;;;;5.13;2.28;;;;;;;;;;5071782;28;20487;-85
2022/04/24 09:48:53;;;;;;;6.47;2.58;;;;;;;;;;5053137;28;20091;-84
2022/04/24 09:51:21;;;;;;;4.75;2.03;;;;;;;;;;5056373;28;20036;-84
2022/04/24 09:53:50;;;;;;;4.25;1.85;;;;;;;;;;5056154;28;20052;-84
2022/04/24 09:56:19;;;;;;;4.50;1.92;;;;;;;;;;5057096;28;20138;-84
2022/04/24 09:58:47;;;;;;;6.05;3.08;;;;;;;;;;5056080;28;20048;-84
2022/04/24 10:01:15;;;;;;;4.75;2.30;;;;;;;;;;5057633;28;20040;-84
2022/04/24 10:03:42;;;;;;;6.70;2.42;;;;;;;;;;5055436;28;20040;-84
2022/04/24 10:06:11;;;;;;;4.78;1.85;;;;;;;;;;5054484;28;20043;-84
2022/04/24 10:08:40;;;;;;;5.25;2.40;;;;;;;;;;5055345;28;20044;-83
2022/04/24 10:11:08;;;;;;;6.07;2.50;;;;;;;;;;5057588;28;20060;-87
2022/04/24 10:13:41;;;;;;;4.53;2.10;;;;;;;;;;5058264;28;20500;-86
2022/04/24 10:16:40;;;;;;;5.53;2.70;;;;;;;;;;5057803;28;20148;-86
2022/04/24 10:19:29;;;;;;;7.72;2.92;;;;;;;;;;4962341;28;20141;-85
2022/04/24 10:22:16;;;;;;;6.95;2.53;;;;;;;;;;4965715;28;20101;-85
2022/04/24 10:24:45;;;;;;;8.75;2.60;;;;;;;;;;4964027;28;20066;-88
2022/04/24 10:27:12;;;;;;;7.97;2.72;;;;;;;;;;4967806;28;20046;-88
2022/04/24 10:29:51;;;;;;;4.50;2.50;;;;;;;;;;4965867;28;20536;-86
2022/04/24 10:32:30;;;;;;;5.15;2.58;;;;;;;;;;4967129;28;20564;-85
2022/04/24 10:35:01;;;;;;;5.03;2.42;;;;;;;;;;4948710;28;20150;-85
2022/04/24 10:37:31;;;;;;;7.22;2.60;;;;;;;;;;4965516;28;20063;-85
2022/04/24 10:40:00;;;;;;;7.05;2.47;;;;;;;;;;4965301;28;20483;-85
2022/04/24 10:42:35;;;;;;;6.57;2.53;;;;;;;;;;4968795;28;20512;-86
2022/04/24 10:45:17;;;;;;;9.90;2.30;;;;;;;;;;4969705;28;20126;-86
2022/04/24 10:47:50;;;;;;;8.13;2.60;;;;;;;;;;4969366;28;20098;-84
2022/04/24 10:50:19;;;;;;;6.38;2.65;;;;;;;;;;4966016;28;20060;-85
2022/04/24 10:52:48;;;;;;;8.43;2.50;;;;;;;;;;4968165;28;20443;-84
2022/04/24 10:55:23;;;;;;;6.45;2.45;;;;;;;;;;4978633;28;20051;-84
2022/04/24 10:57:57;;;;;;;5.03;2.70;;;;;;;;;;5059302;28;20060;-84
2022/04/24 11:00:32;;;;;;;5.32;2.42;;;;;;;;;;5058732;28;20041;-86
2022/04/24 11:03:13;;;;;;;7.00;3.00;;;;;;;;;;5058851;28;20473;-86
2022/04/24 11:05:46;;;;;;;6.18;2.67;;;;;;;;;;5061703;28;20098;-80
2022/04/24 11:08:20;;;;;;;4.85;2.25;;;;;;;;;;5060329;28;20051;-85
2022/04/24 11:10:50;;;;;;;9.48;3.10;;;;;;;;;;5058389;28;20041;-84
2022/04/24 11:13:19;;;;;;;6.50;2.88;;;;;;;;;;5060566;28;20041;-84
2022/04/24 11:15:48;;;;;;;8.02;2.60;;;;;;;;;;5059607;28;20047;-84
2022/04/24 11:18:26;;;;;;;6.57;2.58;;;;;;;;;;5060928;28;20064;-84
2022/04/24 11:20:57;;;;;;;8.18;2.63;;;;;;;;;;5056735;28;20144;-84
2022/04/24 11:23:26;;;;;;;8.13;2.75;;;;;;;;;;5068421;28;20055;-84
2022/04/24 11:25:58;;;;;;;6.30;2.53;;;;;;;;;;5054956;28;20557;-84
2022/04/24 11:28:47;;;;;;;7.95;3.08;;;;;;;;;;5060337;28;20044;-84
2022/04/24 11:31:22;;;;;;;10.32;3.28;;;;;;;;;;5060494;28;20065;-83
2022/04/24 11:33:56;;;;;;;6.90;2.92;;;;;;;;;;5057567;28;20056;-85
2022/04/24 11:36:31;;;;;;;8.98;3.35;;;;;;;;;;5059293;28;20037;-84
2022/04/24 11:39:03;;;;;;;10.13;2.85;;;;;;;;;;5051616;28;20041;-86
2022/04/24 11:41:31;;;;;;;11.68;3.97;;;;;;;;;;5058899;28;20094;-84
2022/04/24 11:50:13;;;;;;;6.72;2.80;;;;;;;;;;5059136;28;20029;-83
2022/04/24 11:50:14;;;;;;;9.93;3.15;;;;;;;;;;5060681;28;20516;-83
2022/04/24 11:53:00;;;;;;;9.57;3.15;;;;;;;;;;5057638;28;20135;-84
2022/04/24 11:56:01;;;;;;;8.10;2.53;;;;;;;;;;5058579;28;20140;-84
2022/04/24 11:58:16;;;;;;;4.18;2.58;;;;;;;;;;5057302;28;20120;-83
2022/04/24 12:00:45;;;;;;;6.13;2.97;;;;;;;;;;5059815;28;20056;-83
2022/04/24 12:03:13;;;;;;;12.63;3.50;;;;;;;;;;5057868;28;20041;-84
2022/04/24 12:05:41;;;;;;;8.30;2.70;;;;;;;;;;5060577;28;20037;-83
2022/04/24 12:08:11;;;;;;;8.48;3.22;;;;;;;;;;5061543;28;20048;-83
2022/04/24 12:10:43;;;;;;;6.93;3.25;;;;;;;;;;5060060;28;20047;-83
2022/04/24 12:13:10;;;;;;;8.57;3.25;;;;;;;;;;5063334;28;20444;-83
2022/04/24 12:15:50;;;;;;;7.88;3.10;;;;;;;;;;5061213;28;20033;-83
2022/04/24 12:18:23;;;;;;;6.38;3.10;;;;;;;;;;5061466;28;20051;-83
2022/04/24 12:20:51;;;;;;;6.88;3.15;;;;;;;;;;5057634;28;20040;-83
2022/04/24 12:23:19;;;;;;;5.80;3.13;;;;;;;;;;5058863;28;20045;-85
2022/04/24 12:25:53;;;;;;;11.20;3.15;;;;;;;;;;5058328;28;20051;-84
2022/04/24 12:28:40;;;;;;;6.78;3.42;;;;;;;;;;5061551;28;20032;-83
2022/04/24 12:31:23;;;;;;;7.78;3.15;;;;;;;;;;5060028;28;20036;-83
2022/04/24 12:33:57;;;;;;;8.15;3.80;;;;;;;;;;5058335;28;20052;-84
2022/04/24 12:36:24;;;;;;;8.73;3.53;;;;;;;;;;5057805;28;20041;-84
2022/04/24 12:38:57;;;;;;;6.15;3.13;;;;;;;;;;5058636;28;20041;-84
2022/04/24 12:41:37;;;;;;;7.68;3.40;;;;;;;;;;5054811;28;20585;-84
2022/04/24 12:44:06;;;;;;;7.68;3.35;;;;;;;;;;5056102;28;20090;-85
2022/04/24 12:46:35;;;;;;;9.60;2.40;;;;;;;;;;5058652;28;20128;-85
2022/04/24 12:49:03;;;;;;;8.48;3.33;;;;;;;;;;5072294;28;20048;-85
2022/04/24 12:51:30;;;;;;;11.50;3.88;;;;;;;;;;5059943;28;20063;-85
2022/04/24 12:54:01;;;;;;;9.20;3.88;;;;;;;;;;5057573;28;20516;-85
2022/04/24 12:56:29;;;;;;;11.30;3.10;;;;;;;;;;5056705;28;20044;-84
2022/04/24 12:58:59;;;;;;;9.88;3.40;;;;;;;;;;5057506;28;20045;-85
2022/04/24 13:01:26;;;;;;;8.15;3.63;;;;;;;;;;5057898;28;20536;-85
2022/04/24 13:03:55;;;;;;;8.13;3.50;;;;;;;;;;5056397;28;20045;-86
2022/04/24 13:06:28;;;;;;;7.55;3.17;;;;;;;;;;5056487;28;20040;-84
2022/04/24 13:08:57;;;;;;;5.85;3.20;;;;;;;;;;5060799;28;20055;-84
2022/04/24 13:11:25;;;;;;;7.35;3.58;;;;;;;;;;5060130;28;20160;-84
2022/04/24 13:13:53;;;;;;;12.25;3.72;;;;;;;;;;5059642;28;20526;-85
2022/04/24 13:19:12;;;;;;;8.98;3.50;;;;;;;;;;5058668;28;20516;-85
2022/04/24 13:21:46;;;;;;;8.10;3.58;;;;;;;;;;5057335;28;20045;-84
2022/04/24 13:24:14;;;;;;;10.05;4.00;;;;;;;;;;5056702;28;20032;-85
2022/04/24 13:26:42;;;;;;;8.40;3.60;;;;;;;;;;5057516;28;20048;-85
2022/04/24 13:29:13;;;;;;;6.10;2.83;;;;;;;;;;5054790;28;20041;-87
2022/04/24 13:31:47;;;;;;;11.32;3.53;;;;;;;;;;5053876;28;20077;-86
2022/04/24 13:34:16;;;;;;;9.98;3.97;;;;;;;;;;5054744;28;20160;-85
2022/04/24 13:36:44;;;;;;;7.03;3.20;;;;;;;;;;5055166;28;20036;-85
2022/04/24 13:39:13;;;;;;;10.38;3.30;;;;;;;;;;5055851;28;20044;-85
2022/04/24 13:41:41;;;;;;;10.63;3.42;;;;;;;;;;5055980;28;20406;-85
2022/04/24 13:44:09;;;;;;;11.55;3.78;;;;;;;;;;5056645;28;20048;-85
2022/04/24 13:46:37;;;;;;;6.20;3.22;;;;;;;;;;5061026;28;20036;-82
2022/04/24 13:49:05;;;;;;;9.70;4.05;;;;;;;;;;5058538;28;20478;-82
2022/04/24 13:51:34;;;;;;;12.82;4.25;;;;;;;;;;5059133;28;20059;-82
2022/04/24 13:54:03;;;;;;;9.10;3.90;;;;;;;;;;5055300;28;20040;-82
2022/04/24 13:56:31;;;;;;;10.10;3.55;;;;;;;;;;5051930;28;20032;-81
2022/04/24 13:58:59;;;;;;;6.85;3.22;;;;;;;;;;5053548;28;20124;-82
2022/04/24 14:01:27;;;;;;;10.55;3.75;;;;;;;;;;5056641;28;20537;-83
2022/04/24 14:03:55;;;;;;;8.40;3.50;;;;;;;;;;5057002;28;20044;-82
2022/04/24 14:06:23;;;;;;;7.18;4.03;;;;;;;;;;5057137;28;20032;-81
2022/04/24 14:08:51;;;;;;;7.82;3.60;;;;;;;;;;5052753;28;20071;-81
2022/04/24 14:11:19;;;;;;;8.95;3.67;;;;;;;;;;5055988;28;20036;-84
2022/04/24 14:13:49;;;;;;;8.25;3.33;;;;;;;;;;5056475;28;20037;-84
2022/04/24 14:16:18;;;;;;;7.00;3.72;;;;;;;;;;5053979;28;20156;-83
2022/04/24 14:18:45;;;;;;;6.40;3.80;;;;;;;;;;5055904;28;20049;-83
2022/04/24 14:21:13;;;;;;;9.48;3.00;;;;;;;;;;5053077;28;20045;-84
2022/04/24 14:23:45;;;;;;;9.88;3.92;;;;;;;;;;5053197;28;20075;-84
2022/04/24 14:26:14;;;;;;;11.75;4.15;;;;;;;;;;5049395;28;20051;-84
2022/04/24 14:28:41;;;;;;;9.18;4.07;;;;;;;;;;5049062;28;20036;-85
2022/04/24 14:31:09;;;;;;;8.05;4.07;;;;;;;;;;5050878;28;20379;-84
2022/04/24 14:33:37;;;;;;;6.82;3.53;;;;;;;;;;5052121;28;20094;-84
2022/04/24 14:36:09;;;;;;;9.05;3.65;;;;;;;;;;5055187;28;20127;-87
2022/04/24 14:38:37;;;;;;;10.25;4.20;;;;;;;;;;5054962;28;20425;-83
2022/04/24 14:41:05;;;;;;;9.68;3.83;;;;;;;;;;5052104;28;20045;-82
2022/04/24 14:43:33;;;;;;;9.52;4.05;;;;;;;;;;5055425;28;20126;-82
2022/04/24 14:57:09;;;;;;;9.73;3.47;;;;;;;;;;5055898;28;20171;-82
2022/04/24 14:59:37;;;;;;;11.07;3.92;;;;;;;;;;5055853;28;20052;-82
2022/04/24 15:02:05;;;;;;;7.68;3.30;;;;;;;;;;5056214;28;20425;-81
2022/04/24 15:04:34;;;;;;;11.73;4.35;;;;;;;;;;5055996;28;20076;-82
2022/04/24 15:07:01;;;;;;;11.07;4.18;;;;;;;;;;5055663;28;20057;-82
2022/04/24 15:09:29;;;;;;;11.95;3.88;;;;;;;;;;5055270;28;20099;-81
2022/04/24 15:11:57;;;;;;;7.70;3.45;;;;;;;;;;5054746;28;20045;-82